Time;durP1;ratioP1;P1;durP2;ratioP2;P2;SDS_P1;SDS_P2;PMS_P1;PMS_P2;Temp;Humidity;BMP_temperature;BMP_pressure;BME280_temperature;BME280_humidity;BME280_pressure;Samples;Min_cycle;Max_cycle;Signal;HPM_P1;HPM_P2
2022/04/02 00:00:12;;;;;;;34.93;31.30;;;;;;;0.56;100.00;99283.84;5057651;28;20248;-64
2022/04/02 00:02:40;;;;;;;38.10;34.20;;;;;;;0.62;100.00;99278.81;5060951;28;20264;-63
2022/04/02 00:05:06;;;;;;;34.53;31.07;;;;;;;0.58;100.00;99284.72;5059636;28;20194;-64
2022/04/02 00:07:31;;;;;;;35.23;31.70;;;;;;;0.57;100.00;99281.31;5063513;28;20197;-64
2022/04/02 00:09:59;;;;;;;35.87;32.30;;;;;;;0.56;100.00;99284.69;5058675;28;20293;-64
2022/04/02 00:12:24;;;;;;;36.07;32.33;;;;;;;0.63;100.00;99289.88;5056178;28;20226;-65
2022/04/02 00:14:50;;;;;;;36.20;32.50;;;;;;;0.63;100.00;99289.88;5063029;28;20198;-63
2022/04/02 00:17:16;;;;;;;33.70;30.30;;;;;;;0.59;100.00;99283.88;5057480;28;21935;-64
2022/04/02 00:19:41;;;;;;;33.43;30.20;;;;;;;0.56;100.00;99288.94;5067892;28;20242;-64
2022/04/02 00:22:06;;;;;;;35.87;31.97;;;;;;;0.62;100.00;99283.06;5069171;28;20564;-64
2022/04/02 00:24:32;;;;;;;31.83;28.63;;;;;;;0.59;100.00;99287.28;5055752;28;20273;-65
2022/04/02 00:26:57;;;;;;;31.43;28.20;;;;;;;0.56;100.00;99289.78;5064271;28;20198;-65
2022/04/02 00:29:22;;;;;;;31.20;28.07;;;;;;;0.55;100.00;99285.50;5061213;28;20202;-63
2022/04/02 00:31:48;;;;;;;31.03;27.87;;;;;;;0.58;100.00;99283.00;5062402;28;20214;-63
2022/04/02 00:34:13;;;;;;;33.27;29.77;;;;;;;0.59;100.00;99279.63;5063966;28;20309;-63
2022/04/02 00:36:39;;;;;;;29.90;26.90;;;;;;;0.57;100.00;99283.84;5057816;28;20288;-64
2022/04/02 00:39:06;;;;;;;33.00;29.63;;;;;;;0.60;100.00;99289.00;5061434;28;20214;-65
2022/04/02 00:41:32;;;;;;;32.70;29.40;;;;;;;0.52;100.00;99280.41;5068708;28;20179;-65
2022/04/02 00:44:09;;;;;;;36.03;32.43;;;;;;;0.50;100.00;99276.97;5058290;28;20678;-64
2022/04/02 00:46:34;;;;;;;37.20;33.30;;;;;;;0.47;100.00;99278.56;5065903;28;20545;-63
2022/04/02 00:48:59;;;;;;;43.00;37.73;;;;;;;0.48;100.00;99281.16;5063512;28;20228;-63
2022/04/02 00:51:25;;;;;;;43.07;37.63;;;;;;;0.55;100.00;99285.50;5060720;28;20209;-63
2022/04/02 00:53:51;;;;;;;43.47;38.77;;;;;;;0.51;100.00;99272.72;5058066;28;20196;-63
2022/04/02 00:56:18;;;;;;;42.30;37.70;;;;;;;0.50;100.00;99276.09;5057718;28;20283;-64
2022/04/02 00:58:44;;;;;;;40.07;35.97;;;;;;;0.44;100.00;99284.50;5057581;28;20228;-62
2022/04/02 01:01:10;;;;;;;42.70;37.97;;;;;;;0.44;100.00;99282.81;5061611;28;20185;-63
2022/04/02 01:03:36;;;;;;;37.87;34.03;;;;;;;0.38;100.00;99284.41;5062681;28;20449;-64
2022/04/02 01:06:02;;;;;;;41.90;37.40;;;;;;;0.44;100.00;99279.41;5057597;28;20218;-63
2022/04/02 01:08:27;;;;;;;49.90;41.57;;;;;;;0.47;100.00;99276.91;5063536;28;20211;-63
2022/04/02 01:10:55;;;;;;;45.43;39.67;;;;;;;0.49;100.00;99279.47;5064557;28;20578;-65
2022/04/02 01:13:22;;;;;;;43.77;37.70;;;;;;;0.50;100.00;99279.50;5077895;28;20526;-64
2022/04/02 01:15:48;;;;;;;41.07;35.53;;;;;;;0.41;100.00;99282.75;5066248;28;20267;-62
2022/04/02 01:18:13;;;;;;;42.93;36.40;;;;;;;0.45;100.00;99281.13;5065135;28;20718;-64
2022/04/02 01:20:39;;;;;;;41.13;36.77;;;;;;;0.39;100.00;99281.00;5062057;28;20185;-65
2022/04/02 01:23:05;;;;;;;42.90;37.20;;;;;;;0.38;100.00;99284.41;5066302;28;20454;-63
2022/04/02 01:25:34;;;;;;;43.90;38.57;;;;;;;0.35;100.00;99289.44;5060678;28;20650;-63
2022/04/02 01:28:00;;;;;;;41.10;36.73;;;;;;;0.34;100.00;99293.66;5058598;28;20682;-63
2022/04/02 01:30:27;;;;;;;45.43;38.83;;;;;;;0.32;100.00;99294.47;5058844;28;20444;-63
2022/04/02 01:32:53;;;;;;;46.73;39.27;;;;;;;0.34;100.00;99295.38;5058973;28;20232;-64
2022/04/02 01:35:22;;;;;;;48.37;41.50;;;;;;;0.35;100.00;99304.72;5062847;28;20214;-63
2022/04/02 01:37:49;;;;;;;48.93;41.83;;;;;;;0.35;100.00;99295.38;5059342;28;20183;-64
2022/04/02 01:40:14;;;;;;;53.40;41.53;;;;;;;0.40;100.00;99303.97;5060624;28;20199;-65
2022/04/02 01:42:39;;;;;;;51.27;42.77;;;;;;;0.40;100.00;99303.97;5064263;28;20261;-62
2022/04/02 01:45:06;;;;;;;54.00;43.03;;;;;;;0.38;100.00;99302.22;5080444;28;20184;-64
2022/04/02 01:47:31;;;;;;;50.00;41.83;;;;;;;0.32;100.00;99297.88;5082270;28;20245;-63
2022/04/02 01:49:57;;;;;;;53.77;44.33;;;;;;;0.29;100.00;99308.03;5063428;28;20591;-63
2022/04/02 01:52:22;;;;;;;52.30;42.47;;;;;;;0.26;100.00;99305.41;5057185;28;20600;-63
2022/04/02 01:54:48;;;;;;;53.87;44.23;;;;;;;0.22;100.00;99308.72;5059329;28;20184;-63
2022/04/02 01:57:14;;;;;;;58.73;45.77;;;;;;;0.21;100.00;99305.34;5058091;28;20907;-64
2022/04/02 01:59:40;;;;;;;59.53;45.13;;;;;;;0.20;100.00;99308.72;5054358;28;20206;-64
2022/04/02 02:02:07;;;;;;;63.93;46.53;;;;;;;0.16;100.00;99314.56;5057725;28;20194;-62
2022/04/02 02:04:33;;;;;;;67.53;48.40;;;;;;;0.11;100.00;99313.63;5060940;28;20486;-63
2022/04/02 02:07:00;;;;;;;66.03;47.57;;;;;;;0.11;100.00;99309.41;5057500;28;20362;-63
2022/04/02 02:09:25;;;;;;;71.93;50.83;;;;;;;0.11;100.00;99317.03;5057103;28;20212;-63
2022/04/02 02:11:50;;;;;;;75.70;50.77;;;;;;;0.09;100.00;99317.81;5057718;28;20218;-64
2022/04/02 02:14:16;;;;;;;76.30;53.10;;;;;;;0.09;100.00;99320.38;5057283;28;20187;-62
2022/04/02 02:16:41;;;;;;;72.17;50.70;;;;;;;0.04;100.00;99320.28;5057200;28;20263;-63
2022/04/02 02:19:06;;;;;;;78.43;52.87;;;;;;;0.04;100.00;99322.84;5061370;28;20300;-62
2022/04/02 02:21:32;;;;;;;88.50;56.83;;;;;;;0.04;100.00;99332.16;5058680;28;20296;-62
2022/04/02 02:23:58;;;;;;;90.60;57.37;;;;;;;0.08;100.00;99322.06;5057235;28;20217;-62
2022/04/02 02:26:24;;;;;;;93.37;57.53;;;;;;;0.10;100.00;99325.50;5057386;28;20183;-63
2022/04/02 02:28:49;;;;;;;96.77;58.73;;;;;;;0.07;100.00;99322.91;5058121;28;20515;-63
2022/04/02 02:31:15;;;;;;;100.03;59.20;;;;;;;0.09;100.00;99325.47;5058263;28;20707;-64
2022/04/02 02:36:25;;;;;;;104.87;60.33;;;;;;;0.14;100.00;99334.03;5057887;28;20201;-62
2022/04/02 02:38:50;;;;;;;103.17;60.53;;;;;;;0.12;100.00;99334.03;5057780;28;20205;-63
2022/04/02 02:41:16;;;;;;;111.00;63.63;;;;;;;0.13;100.00;99329.78;5058316;28;20188;-63
2022/04/02 02:43:42;;;;;;;105.27;61.10;;;;;;;0.10;100.00;99324.63;5058430;28;20275;-62
2022/04/02 02:46:08;;;;;;;103.43;60.27;;;;;;;0.06;100.00;99328.81;5056043;28;20918;-62
2022/04/02 02:48:34;;;;;;;116.37;64.40;;;;;;;0.06;100.00;99335.59;5062509;28;20207;-63
2022/04/02 02:51:00;;;;;;;120.13;66.33;;;;;;;0.06;100.00;99333.06;5062828;28;20229;-62
2022/04/02 02:53:26;;;;;;;113.03;64.30;;;;;;;0.02;100.00;99334.66;5064695;28;20220;-63
2022/04/02 02:55:51;;;;;;;113.37;62.93;;;;;;;-0.01;100.00;99342.28;5060055;28;20196;-62
2022/04/02 02:58:16;;;;;;;120.00;65.33;;;;;;;-0.02;100.00;99330.38;5062992;28;20234;-62
2022/04/02 03:00:43;;;;;;;126.03;68.77;;;;;;;0.03;100.00;99340.63;5066767;28;20185;-62
2022/04/02 03:03:09;;;;;;;130.00;67.33;;;;;;;-0.01;100.00;99350.75;5061451;28;20177;-63
2022/04/02 03:05:35;;;;;;;133.00;71.10;;;;;;;-0.01;100.00;99334.63;5062111;28;20675;-62
2022/04/02 03:08:01;;;;;;;130.70;69.57;;;;;;;0.04;100.00;99344.88;5061640;28;20184;-62
2022/04/02 03:10:27;;;;;;;137.27;71.90;;;;;;;0.04;100.00;99340.66;5061059;28;20190;-61
2022/04/02 03:12:57;;;;;;;143.27;73.43;;;;;;;0.07;100.00;99342.41;5061893;28;20578;-63
2022/04/02 03:15:24;;;;;;;144.10;72.07;;;;;;;0.13;100.00;99350.13;5059627;28;20191;-62
2022/04/02 03:17:50;;;;;;;138.53;70.40;;;;;;;0.05;100.00;99349.16;5064333;28;20239;-63
2022/04/02 03:20:18;;;;;;;138.73;71.13;;;;;;;0.03;100.00;99345.72;5056358;28;20186;-62
2022/04/02 03:22:45;;;;;;;144.17;71.83;;;;;;;-0.01;100.00;99340.56;5060696;28;20495;-63
2022/04/02 03:25:18;;;;;;;150.57;76.33;;;;;;;0.04;100.00;99355.06;5063419;28;20854;-63
2022/04/02 03:27:45;;;;;;;152.47;76.00;;;;;;;-0.01;100.00;99347.34;5064071;28;20206;-61
2022/04/02 03:30:12;;;;;;;155.07;75.73;;;;;;;0.02;100.00;99356.72;5067464;28;20228;-62
2022/04/02 03:32:39;;;;;;;157.90;76.03;;;;;;;0.01;100.00;99344.81;5060089;28;20254;-63
2022/04/02 03:35:06;;;;;;;149.53;71.97;;;;;;;-0.09;100.00;99348.88;5061077;28;20203;-62
2022/04/02 03:37:36;;;;;;;151.00;74.50;;;;;;;-0.07;100.00;99357.41;5059674;28;20651;-63
2022/04/02 03:40:04;;;;;;;164.10;76.83;;;;;;;-0.13;100.00;99358.16;5058529;28;20687;-63
2022/04/02 03:42:29;;;;;;;166.87;76.53;;;;;;;-0.13;100.00;99359.81;5063360;28;20191;-61
2022/04/02 03:44:54;;;;;;;164.33;78.07;;;;;;;-0.08;100.00;99355.69;5061743;28;20188;-62
2022/04/02 03:47:22;;;;;;;175.50;80.27;;;;;;;-0.14;100.00;99361.50;5062665;28;20640;-63
2022/04/02 03:49:48;;;;;;;165.30;78.33;;;;;;;-0.15;100.00;99359.81;5061554;28;20767;-63
2022/04/02 03:52:15;;;;;;;164.53;76.73;;;;;;;-0.17;100.00;99367.41;5060733;28;20553;-61
2022/04/02 03:54:40;;;;;;;159.00;75.57;;;;;;;-0.20;100.00;99366.47;5064033;28;20646;-61
2022/04/02 03:57:07;;;;;;;159.10;75.90;;;;;;;-0.22;100.00;99366.44;5059510;28;20194;-62
2022/04/02 03:59:32;;;;;;;165.03;79.93;;;;;;;-0.18;100.00;99363.16;5057377;28;20218;-62
2022/04/02 04:01:59;;;;;;;163.30;76.20;;;;;;;-0.12;100.00;99370.03;5061769;28;20184;-64
2022/04/02 04:04:25;;;;;;;167.77;77.23;;;;;;;-0.17;100.00;99389.41;5065079;28;20565;-62
2022/04/02 04:06:52;;;;;;;179.60;80.60;;;;;;;-0.15;100.00;99372.50;5061262;28;20190;-62
2022/04/02 04:09:19;;;;;;;160.63;76.47;;;;;;;-0.19;100.00;99369.06;5062455;28;20706;-61
2022/04/02 04:11:44;;;;;;;179.83;80.30;;;;;;;-0.18;100.00;99375.88;5059826;28;20211;-63
2022/04/02 04:14:09;;;;;;;169.57;78.07;;;;;;;-0.12;100.00;99377.66;5062863;28;20274;-62
2022/04/02 04:16:36;;;;;;;176.70;80.87;;;;;;;-0.07;100.00;99382.84;5065196;28;20182;-63
2022/04/02 04:19:01;;;;;;;175.17;82.93;;;;;;;-0.12;100.00;99387.84;5060579;28;20283;-62
2022/04/02 04:21:27;;;;;;;179.50;80.07;;;;;;;-0.19;100.00;99376.69;5065245;28;20553;-63
2022/04/02 04:23:52;;;;;;;178.37;80.53;;;;;;;-0.14;100.00;99380.97;5062882;28;20202;-62
2022/04/02 04:26:18;;;;;;;177.03;80.50;;;;;;;-0.10;100.00;99386.19;5079943;28;20195;-62
2022/04/02 04:28:43;;;;;;;175.57;80.30;;;;;;;-0.14;100.00;99388.63;5063880;28;20671;-62
2022/04/02 04:31:09;;;;;;;176.13;77.13;;;;;;;-0.20;100.00;99396.97;5068859;28;20206;-61
2022/04/02 04:33:35;;;;;;;172.93;79.73;;;;;;;-0.23;100.00;99400.34;5062147;28;20195;-61
2022/04/02 04:36:01;;;;;;;173.17;78.40;;;;;;;-0.23;100.00;99394.41;5061498;28;20192;-61
2022/04/02 04:38:30;;;;;;;177.73;78.23;;;;;;;-0.23;100.00;99394.41;5059998;28;20218;-62
2022/04/02 04:40:55;;;;;;;172.40;78.67;;;;;;;-0.22;100.00;99402.06;5058264;28;20215;-62
2022/04/02 04:43:21;;;;;;;173.60;80.97;;;;;;;-0.19;100.00;99411.41;5065217;28;20214;-63
2022/04/02 04:45:46;;;;;;;176.70;79.87;;;;;;;-0.14;100.00;99414.91;5061420;28;20236;-61
2022/04/02 04:48:11;;;;;;;182.97;83.43;;;;;;;-0.19;100.00;99408.88;5059127;28;20408;-64
2022/04/02 04:50:37;;;;;;;180.77;81.30;;;;;;;-0.15;100.00;99415.75;5062246;28;20193;-62
2022/04/02 04:53:02;;;;;;;167.40;77.60;;;;;;;-0.17;100.00;99418.28;5062578;28;20236;-62
2022/04/02 04:55:28;;;;;;;178.63;80.83;;;;;;;-0.16;100.00;99427.63;5059942;28;20213;-62
2022/04/02 04:57:54;;;;;;;177.53;79.63;;;;;;;-0.18;100.00;99420.75;5058226;28;20185;-63
2022/04/02 05:00:20;;;;;;;180.50;80.40;;;;;;;-0.12;100.00;99427.66;5063271;28;20213;-63
2022/04/02 05:02:47;;;;;;;189.13;81.10;;;;;;;-0.14;100.00;99431.84;5059416;28;20646;-64
2022/04/02 05:05:13;;;;;;;173.57;79.23;;;;;;;-0.10;100.00;99436.19;5063465;28;20190;-62
2022/04/02 05:07:39;;;;;;;161.43;73.87;;;;;;;-0.21;100.00;99428.31;5059242;28;20179;-63
2022/04/02 05:10:06;;;;;;;165.17;74.23;;;;;;;-0.22;100.00;99426.59;5061030;28;20289;-64
2022/04/02 05:12:32;;;;;;;157.17;72.13;;;;;;;-0.18;100.00;99426.72;5061439;28;20297;-62
2022/04/02 05:14:57;;;;;;;157.43;72.27;;;;;;;-0.12;100.00;99435.28;5060545;28;20188;-63
2022/04/02 05:17:23;;;;;;;157.37;71.53;;;;;;;-0.16;100.00;99435.25;5059310;28;20188;-62
2022/04/02 05:19:49;;;;;;;158.47;73.73;;;;;;;-0.10;100.00;99436.19;5063490;28;20204;-64
2022/04/02 05:22:14;;;;;;;152.87;69.47;;;;;;;-0.18;100.00;99438.56;5061608;28;20188;-63
2022/04/02 05:24:40;;;;;;;152.53;71.60;;;;;;;-0.16;100.00;99442.00;5060230;28;20179;-64
2022/04/02 05:27:05;;;;;;;141.13;67.40;;;;;;;-0.26;100.00;99448.56;5057106;28;20278;-64
2022/04/02 05:29:31;;;;;;;159.27;70.00;;;;;;;-0.29;100.00;99453.59;5064519;28;20207;-64
2022/04/02 05:31:56;;;;;;;152.70;69.77;;;;;;;-0.37;100.00;99455.97;5058127;28;20218;-63
2022/04/02 05:34:21;;;;;;;147.77;67.17;;;;;;;-0.33;100.00;99465.38;5065208;28;20191;-62
2022/04/02 05:36:47;;;;;;;167.13;73.23;;;;;;;-0.31;100.00;99458.66;5064081;28;20301;-64
2022/04/02 05:39:12;;;;;;;149.57;69.20;;;;;;;-0.24;100.00;99469.81;5060156;28;20202;-62
2022/04/02 05:41:38;;;;;;;154.40;72.30;;;;;;;-0.32;100.00;99476.44;5055523;28;20184;-63
2022/04/02 05:44:07;;;;;;;161.10;72.77;;;;;;;-0.33;100.00;99473.00;5062519;28;20226;-63
2022/04/02 05:46:33;;;;;;;169.30;73.23;;;;;;;-0.36;100.00;99478.03;5056989;28;21981;-62
2022/04/02 05:48:58;;;;;;;183.03;79.73;;;;;;;-0.32;100.00;99478.97;5062919;28;20292;-63
2022/04/02 05:51:25;;;;;;;183.40;77.47;;;;;;;-0.28;100.00;99484.97;5058638;28;20660;-63
2022/04/02 05:53:50;;;;;;;171.23;76.47;;;;;;;-0.36;100.00;99488.19;5057598;28;20237;-64
2022/04/02 05:56:18;;;;;;;167.10;75.63;;;;;;;-0.26;100.00;99490.97;5060080;28;20191;-65
2022/04/02 05:58:44;;;;;;;176.83;74.20;;;;;;;-0.32;100.00;99492.53;5057211;28;20199;-62
2022/04/02 06:01:09;;;;;;;158.00;70.13;;;;;;;-0.43;100.00;99510.91;5063465;28;20189;-63
2022/04/02 06:03:35;;;;;;;172.87;73.83;;;;;;;-0.35;100.00;99496.69;5064985;28;20185;-65
2022/04/02 06:06:00;;;;;;;180.43;76.67;;;;;;;-0.32;100.00;99497.63;5064534;28;20539;-63
2022/04/02 06:08:25;;;;;;;156.20;71.30;;;;;;;-0.30;100.00;99495.09;5058768;28;20207;-62
2022/04/02 06:10:51;;;;;;;163.37;71.13;;;;;;;-0.29;100.00;99507.00;5059167;28;21714;-63
2022/04/02 06:13:19;;;;;;;170.03;71.73;;;;;;;-0.28;100.00;99510.41;5058544;28;20317;-64
2022/04/02 06:15:45;;;;;;;168.67;72.97;;;;;;;-0.25;100.00;99515.56;5060915;28;20190;-62
2022/04/02 06:18:12;;;;;;;153.07;67.77;;;;;;;-0.28;100.00;99512.94;5057520;28;20563;-63
2022/04/02 06:20:38;;;;;;;147.10;67.70;;;;;;;-0.37;100.00;99516.97;5061986;28;20179;-63
2022/04/02 06:23:03;;;;;;;162.43;70.07;;;;;;;-0.39;100.00;99518.66;5068122;28;20202;-62
2022/04/02 06:25:29;;;;;;;169.43;71.80;;;;;;;-0.36;100.00;99528.03;5063589;28;20187;-64
2022/04/02 06:27:54;;;;;;;170.43;71.60;;;;;;;-0.37;100.00;99532.25;5054155;28;20211;-65
2022/04/02 06:30:21;;;;;;;162.30;72.00;;;;;;;-0.43;100.00;99531.25;5059058;28;20674;-64
2022/04/02 06:32:47;;;;;;;148.70;66.77;;;;;;;-0.50;100.00;99532.78;5061704;28;20317;-63
2022/04/02 06:35:12;;;;;;;167.63;72.03;;;;;;;-0.50;100.00;99537.88;5057937;28;20802;-64
2022/04/02 06:37:40;;;;;;;171.60;75.60;;;;;;;-0.45;100.00;99540.53;5058867;28;20193;-64
2022/04/02 06:40:09;;;;;;;161.70;72.47;;;;;;;-0.43;100.00;99542.28;5061511;28;20214;-65
2022/04/02 06:42:35;;;;;;;155.40;73.30;;;;;;;-0.34;100.00;99547.56;5058170;28;20224;-65
2022/04/02 06:45:01;;;;;;;149.30;68.17;;;;;;;-0.35;100.00;99556.03;5055643;28;20273;-64
2022/04/02 06:47:29;;;;;;;159.47;70.23;;;;;;;-0.40;100.00;99557.63;5056364;28;20706;-64
2022/04/02 06:49:54;;;;;;;154.30;67.53;;;;;;;-0.43;100.00;99566.81;5062760;28;20284;-63
2022/04/02 06:52:20;;;;;;;156.47;66.43;;;;;;;-0.47;100.00;99571.88;5061170;28;20203;-67
2022/04/02 06:54:45;;;;;;;152.93;69.20;;;;;;;-0.38;100.00;99583.91;5058439;28;20727;-64
2022/04/02 06:57:11;;;;;;;149.80;68.40;;;;;;;-0.38;100.00;99575.44;5060589;28;20184;-65
2022/04/02 06:59:36;;;;;;;165.87;72.07;;;;;;;-0.34;100.00;99572.16;5061501;28;20210;-66
2022/04/02 07:02:03;;;;;;;160.83;72.03;;;;;;;-0.25;100.00;99572.34;5056599;28;20310;-64
2022/04/02 07:04:28;;;;;;;155.57;68.00;;;;;;;-0.25;100.00;99574.91;5057294;28;20303;-64
2022/04/02 07:06:53;;;;;;;154.87;67.60;;;;;;;-0.20;100.00;99583.50;5056538;28;20292;-65
2022/04/02 07:09:19;;;;;;;151.47;66.00;;;;;;;-0.33;100.00;99582.34;5072984;28;20698;-65
2022/04/02 07:11:45;;;;;;;147.73;65.97;;;;;;;-0.23;100.00;99583.44;5059663;28;20205;-65
2022/04/02 07:14:11;;;;;;;151.93;67.83;;;;;;;-0.18;100.00;99588.59;5057525;28;20193;-64
2022/04/02 07:16:38;;;;;;;160.63;71.97;;;;;;;-0.15;100.00;99596.31;5056042;28;20946;-64
2022/04/02 07:19:04;;;;;;;144.60;65.63;;;;;;;-0.16;100.00;99602.22;5054878;28;20679;-65
2022/04/02 07:21:31;;;;;;;132.13;64.37;;;;;;;-0.06;100.00;99606.69;5055745;28;20180;-65
2022/04/02 07:23:57;;;;;;;132.67;64.30;;;;;;;-0.09;100.00;99601.56;5057505;28;20562;-64
2022/04/02 07:26:22;;;;;;;140.30;63.23;;;;;;;0.00;100.00;99603.47;5055882;28;20182;-66
2022/04/02 07:28:48;;;;;;;131.43;63.53;;;;;;;-0.05;100.00;99616.03;5055219;28;20214;-65
2022/04/02 07:31:14;;;;;;;126.33;61.43;;;;;;;-0.02;100.00;99607.66;5055493;28;21411;-66
2022/04/02 07:33:39;;;;;;;128.07;61.83;;;;;;;-0.01;100.00;99622.09;5057908;28;20192;-65
2022/04/02 07:36:10;;;;;;;130.97;60.17;;;;;;;-0.07;100.00;99625.31;5058912;28;20191;-65
2022/04/02 07:38:40;;;;;;;131.87;62.50;;;;;;;0.01;100.00;99619.56;5057286;28;20215;-64
2022/04/02 07:41:17;;;;;;;110.57;56.47;;;;;;;-0.02;100.00;99626.31;5069956;28;20185;-65
2022/04/02 07:43:55;;;;;;;108.80;57.73;;;;;;;0.09;100.00;99633.31;5062516;28;20520;-67
2022/04/02 07:46:32;;;;;;;124.90;60.10;;;;;;;-0.01;100.00;99637.34;5067954;28;20661;-66
2022/04/02 07:48:58;;;;;;;140.27;63.13;;;;;;;0.07;100.00;99632.44;5061946;28;20210;-67
2022/04/02 07:51:30;;;;;;;110.27;54.67;;;;;;;0.04;100.00;99643.38;5064632;28;20199;-66
2022/04/02 07:54:01;;;;;;;113.03;54.93;;;;;;;0.07;100.00;99643.47;5063418;28;20194;-65
2022/04/02 07:56:30;;;;;;;103.47;52.63;;;;;;;-0.07;100.00;99648.22;5059923;28;20184;-66
2022/04/02 07:59:01;;;;;;;104.07;50.10;;;;;;;0.04;100.00;99651.03;5059934;28;20210;-66
2022/04/02 08:01:26;;;;;;;108.90;52.53;;;;;;;-0.04;100.00;99650.84;5067226;28;20180;-65
2022/04/02 08:03:52;;;;;;;126.83;57.90;;;;;;;0.09;100.00;99656.22;5061962;28;20722;-66
2022/04/02 08:06:19;;;;;;;102.63;54.87;;;;;;;0.12;100.00;99667.34;5062360;28;20226;-66
2022/04/02 08:08:45;;;;;;;111.33;55.37;;;;;;;0.32;100.00;99668.63;5060818;28;20206;-64
2022/04/02 08:11:11;;;;;;;106.73;53.73;;;;;;;0.37;100.00;99660.25;5061919;28;20213;-68
2022/04/02 08:13:43;;;;;;;97.93;49.93;;;;;;;0.47;100.00;99666.41;5057929;28;20287;-66
2022/04/02 08:16:09;;;;;;;85.40;46.73;;;;;;;0.37;100.00;99665.34;5060448;28;20203;-67
2022/04/02 08:18:39;;;;;;;82.97;45.13;;;;;;;0.44;100.00;99694.34;5057396;28;20239;-64
2022/04/02 08:21:06;;;;;;;79.67;45.30;;;;;;;0.29;100.00;99680.44;5060165;28;20516;-65
2022/04/02 08:23:31;;;;;;;84.53;47.07;;;;;;;0.35;100.00;99677.16;5054464;28;20188;-65
2022/04/02 08:26:02;;;;;;;85.20;46.20;;;;;;;0.21;100.00;99688.72;5059616;28;20195;-66
2022/04/02 08:28:56;;;;;;;86.80;47.47;;;;;;;0.20;100.00;99687.00;5060059;28;20305;-65
2022/04/02 08:31:46;;;;;;;88.53;47.53;;;;;;;0.26;100.00;99694.78;5011133;28;20224;-66
2022/04/02 08:34:14;;;;;;;88.70;48.13;;;;;;;0.21;100.00;99693.81;5064429;28;20196;-65
2022/04/02 08:36:49;;;;;;;85.63;48.97;;;;;;;0.23;100.00;99695.56;5057707;28;20188;-66
2022/04/02 08:39:23;;;;;;;77.30;43.83;;;;;;;0.14;100.00;99703.88;5055454;28;20534;-64
2022/04/02 08:42:08;;;;;;;79.73;44.73;;;;;;;0.17;100.00;99703.06;5059799;28;20186;-66
2022/04/02 08:45:01;;;;;;;70.10;41.67;;;;;;;0.14;100.00;99721.69;5061515;28;20278;-64
2022/04/02 08:47:57;;;;;;;80.73;44.63;;;;;;;0.10;100.00;99703.72;5058432;28;20208;-65
2022/04/02 08:50:31;;;;;;;70.93;43.03;;;;;;;0.13;100.00;99714.00;5063176;28;20224;-65
2022/04/02 08:53:08;;;;;;;72.47;42.33;;;;;;;0.13;100.00;99729.25;5057817;28;20223;-65
2022/04/02 08:55:36;;;;;;;78.33;45.03;;;;;;;0.16;100.00;99721.69;5057969;28;20182;-64
2022/04/02 08:58:11;;;;;;;73.17;43.47;;;;;;;0.18;100.00;99735.31;5059341;28;20261;-65
2022/04/02 09:00:45;;;;;;;75.60;44.90;;;;;;;0.19;100.00;99741.25;5058475;28;20183;-66
2022/04/02 09:03:49;;;;;;;79.87;44.73;;;;;;;0.32;100.00;99752.59;5064311;28;20186;-65
2022/04/02 09:06:39;;;;;;;81.67;45.27;;;;;;;0.35;100.00;99747.59;5060777;28;20281;-64
2022/04/02 09:09:06;;;;;;;71.70;41.47;;;;;;;0.41;100.00;99748.59;5062922;28;20726;-66
2022/04/02 09:11:31;;;;;;;65.03;40.33;;;;;;;0.47;100.00;99745.34;5055831;28;20725;-66
2022/04/02 09:14:18;;;;;;;56.47;38.37;;;;;;;0.43;100.00;99754.59;5059308;28;20203;-65
2022/04/02 09:16:53;;;;;;;55.53;36.63;;;;;;;0.47;100.00;99782.66;5063650;28;20178;-65
2022/04/02 09:20:03;;;;;;;57.20;35.63;;;;;;;0.56;100.00;99755.72;5062909;28;20215;-66
2022/04/02 09:22:39;;;;;;;49.83;33.57;;;;;;;0.45;100.00;99755.47;5047995;28;20215;-66
2022/04/02 09:25:21;;;;;;;48.03;31.90;;;;;;;0.56;100.00;99758.28;5060772;28;20182;-65
2022/04/02 09:28:17;;;;;;;42.27;28.27;;;;;;;0.62;100.00;99760.09;5055407;28;20191;-63
2022/04/02 09:30:55;;;;;;;36.70;26.53;;;;;;;0.62;100.00;99765.19;5059112;28;20461;-63
2022/04/02 09:33:59;;;;;;;36.93;27.30;;;;;;;0.65;100.00;99759.31;5060699;28;20193;-63
2022/04/02 09:36:34;;;;;;;36.73;27.30;;;;;;;0.59;100.00;99767.69;5056264;28;20192;-64
2022/04/02 09:39:05;;;;;;;37.70;28.20;;;;;;;0.60;100.00;99766.88;5057744;28;20712;-65
2022/04/02 09:41:40;;;;;;;46.77;30.63;;;;;;;0.74;100.00;99767.16;5058052;28;20232;-66
2022/04/02 09:44:06;;;;;;;40.77;27.90;;;;;;;0.83;100.00;99775.00;5057673;28;20186;-64
2022/04/02 09:46:50;;;;;;;37.53;27.33;;;;;;;0.80;100.00;99780.03;5064174;28;20331;-67
2022/04/02 09:49:40;;;;;;;36.17;25.17;;;;;;;0.85;100.00;99786.09;5064754;28;20216;-66
2022/04/02 09:52:07;;;;;;;37.77;26.97;;;;;;;0.82;100.00;99787.72;5061022;28;20300;-64
2022/04/02 09:55:05;;;;;;;39.43;25.87;;;;;;;0.73;100.00;99783.25;5059132;28;20188;-64
2022/04/02 09:57:53;;;;;;;33.97;25.10;;;;;;;0.88;100.00;99783.59;5031997;28;20328;-67
2022/04/02 10:00:21;;;;;;;34.27;23.83;;;;;;;0.66;100.00;99787.34;5057975;28;20178;-62
2022/04/02 10:03:13;;;;;;;36.20;23.97;;;;;;;0.69;100.00;99784.88;5062856;28;20185;-63
2022/04/02 10:06:00;;;;;;;32.23;22.83;;;;;;;0.49;100.00;99789.53;5064847;28;20187;-62
2022/04/02 10:08:50;;;;;;;34.27;23.97;;;;;;;0.48;100.00;99789.47;5058198;28;20251;-66
2022/04/02 10:11:18;;;;;;;34.10;23.93;;;;;;;0.59;100.00;99805.88;5057664;28;20199;-65
2022/04/02 10:13:45;;;;;;;33.17;24.30;;;;;;;0.78;100.00;99801.19;5060138;28;20210;-64
2022/04/02 10:16:14;;;;;;;28.80;21.83;;;;;;;0.76;100.00;99799.47;5064512;28;20921;-64
2022/04/02 10:18:41;;;;;;;28.83;21.47;;;;;;;0.80;100.00;99790.25;5060746;28;20343;-66
2022/04/02 10:21:09;;;;;;;26.93;21.03;;;;;;;0.68;100.00;99810.34;5059266;28;20190;-65
2022/04/02 10:23:37;;;;;;;23.67;20.17;;;;;;;0.53;100.00;99808.28;5057157;28;20197;-64
2022/04/02 10:26:09;;;;;;;30.57;22.37;;;;;;;0.64;100.00;99806.84;5057252;28;20259;-64
2022/04/02 10:28:46;;;;;;;26.27;20.40;;;;;;;0.38;100.00;99806.22;5057019;28;20239;-63
2022/04/02 10:31:24;;;;;;;29.63;22.57;;;;;;;0.47;100.00;99815.75;5054503;28;20265;-63
2022/04/02 10:33:58;;;;;;;32.73;24.10;;;;;;;0.68;100.00;99802.69;5063200;28;20221;-65
2022/04/02 10:36:26;;;;;;;31.27;23.43;;;;;;;0.75;100.00;99813.06;5060703;28;20614;-66
2022/04/02 10:38:52;;;;;;;32.07;24.63;;;;;;;0.72;100.00;99812.09;5054733;28;20289;-64
2022/04/02 10:41:18;;;;;;;28.87;23.13;;;;;;;0.71;100.00;99824.00;5060158;28;20328;-66
2022/04/02 10:43:57;;;;;;;28.80;23.47;;;;;;;0.65;100.00;99825.53;5066076;28;20190;-63
2022/04/02 10:46:25;;;;;;;27.00;21.23;;;;;;;0.55;100.00;99835.47;5058197;28;20645;-63
2022/04/02 10:48:55;;;;;;;27.83;21.97;;;;;;;0.53;100.00;99824.41;5061770;28;20198;-64
2022/04/02 10:51:28;;;;;;;26.93;20.93;;;;;;;0.60;100.00;99831.38;5065124;28;20202;-65
2022/04/02 10:54:01;;;;;;;27.27;21.77;;;;;;;0.60;100.00;99831.38;5058688;28;20723;-65
2022/04/02 10:56:40;;;;;;;23.83;20.90;;;;;;;0.56;100.00;99842.31;5053885;28;20668;-63
2022/04/02 10:59:08;;;;;;;22.70;19.00;;;;;;;0.50;100.00;99837.06;5061285;28;20204;-65
2022/04/02 11:01:38;;;;;;;28.00;19.67;;;;;;;0.43;100.00;99842.81;5073256;28;20197;-66
2022/04/02 11:04:27;;;;;;;24.00;19.33;;;;;;;0.43;100.00;99851.34;5062191;28;20676;-66
2022/04/02 11:06:52;;;;;;;25.40;20.40;;;;;;;0.35;100.00;99869.78;5067470;28;20232;-65
2022/04/02 11:09:41;;;;;;;32.23;23.60;;;;;;;0.32;100.00;99846.78;5056739;28;20657;-65
2022/04/02 11:12:17;;;;;;;27.87;23.00;;;;;;;0.41;100.00;99842.78;5057990;28;20227;-64
2022/04/02 11:14:49;;;;;;;29.53;23.57;;;;;;;0.47;100.00;99848.84;5064703;28;20186;-63
2022/04/02 11:17:29;;;;;;;31.57;24.13;;;;;;;0.47;100.00;99859.03;5063222;28;20192;-65
2022/04/02 11:20:15;;;;;;;37.13;25.90;;;;;;;0.54;100.00;99858.38;5064401;28;20751;-63